Latest Coastal Weather Observations for Noarlunga

IDS60701

Issued at 8:55 am CDT Monday 24 November 2014 (issued every 10 minutes, with the page automatically refreshed every 10 minutes)

About coastal observations | Map of coastal stations | Coastal observations for SA | Marine services | Other Formats
Station Details ID: 023885 Name: NOARLUNGA Lat: -35.16 Lon: 138.51 Height: 55.0 m
Data from the previous 72 hours. | See also: Recent months at Noarlunga
Date/Time
CDT
Temp

°C
Wind Pressure Rain
since 9am
mm
Weather Cloud Vis
km
Sea
Height
m
Swell
Dir
 
Speed
knots
Gust
knots
hPa Trend Height
m
Period
s
Dir
24/08:30am 18.8 SSW 7 10 - - 0.0 - - - - - - -
24/08:00am 18.2 S 5 7 - - 0.0 - - - - - - -
24/07:30am 17.5 S 5 9 - - 0.0 - - - - - - -
24/07:00am 16.8 SSE 8 12 - - 0.0 - - - - - - -
24/06:30am 16.6 SSE 7 10 - - 0.0 - - - - - - -
24/06:00am 16.4 SSE 8 10 - - 0.0 - - - - - - -
24/05:30am 16.6 SSE 7 11 - - 0.0 - - - - - - -
24/05:00am 17.5 ESE 13 19 - - 0.0 - - - - - - -
24/04:30am 18.0 ESE 13 19 - - 0.0 - - - - - - -
24/04:00am 18.4 SE 13 19 - - 0.0 - - - - - - -
24/03:30am 19.9 ESE 6 11 - - 0.0 - - - - - - -
24/03:00am 19.9 ESE 8 13 - - 0.0 - - - - - - -
24/02:30am 20.2 E 10 14 - - 0.0 - - - - - - -
24/02:00am 20.1 E 7 11 - - 0.0 - - - - - - -
24/01:30am 20.3 E 10 19 - - 0.0 - - - - - - -
24/01:12am 20.7 E 15 26 - - 0.0 - - - - - - -
24/01:00am 20.3 NE 7 15 - - 0.0 - - - - - - -
24/12:30am 20.2 ESE 15 22 - - 0.0 - - - - - - -
24/12:00am 20.1 ESE 15 22 - - 0.0 - - - - - - -
 
Date/Time
CDT
Temp

°C
Wind Pressure Rain
since 9am
mm
Weather Cloud Vis
km
Sea
Height
m
Swell
Dir
 
Speed
knots
Gust
knots
hPa Trend Height
m
Period
s
Dir
23/11:30pm 20.6 ESE 14 23 - - 0.0 - - - - - - -
23/11:00pm 21.1 ESE 15 22 - - 0.0 - - - - - - -
23/10:30pm 21.3 ESE 13 22 - - 0.0 - - - - - - -
23/10:00pm 21.1 SE 10 17 - - 0.0 - - - - - - -
23/09:30pm 21.4 SE 7 13 - - 0.0 - - - - - - -
23/09:00pm 22.0 SE 7 11 - - 0.0 - - - - - - -
23/08:30pm 23.2 S 5 8 - - 0.0 - - - - - - -
23/08:00pm 24.4 SSE 5 11 - - 0.0 - - - - - - -
23/07:30pm 26.0 SE 8 13 - - 0.0 - - - - - - -
23/07:00pm 26.8 SSE 5 7 - - 0.0 - - - - - - -
23/06:30pm 27.2 SSE 7 9 - - 0.0 - - - - - - -
23/06:00pm 28.0 S 4 6 - - 0.0 - - - - - - -
23/05:30pm 26.3 SE 3 4 - - 0.0 - - - - - - -
23/05:00pm 25.7 SSW 3 6 - - 0.0 - - - - - - -
23/04:30pm 25.1 W 3 5 - - 0.0 - - - - - - -
23/04:00pm 24.5 S 3 5 - - 0.0 - - - - - - -
23/03:30pm 22.7 W 4 7 - - 0.0 - - - - - - -
23/03:00pm 23.0 WNW 7 9 - - 0.0 - - - - - - -
23/02:30pm 24.2 WNW 8 11 - - 0.0 - - - - - - -
23/02:00pm 24.9 W 5 8 - - 0.0 - - - - - - -
23/01:30pm 24.0 SSW 5 9 - - 0.0 - - - - - - -
23/01:00pm 23.5 WSW 6 9 - - 0.0 - - - - - - -
23/12:30pm 22.8 WSW 6 9 - - 0.0 - - - - - - -
23/12:00pm 22.6 W 5 7 - - 0.0 - - - - - - -
23/11:30am 22.0 WSW 6 8 - - 0.0 - - - - - - -
23/11:00am 21.9 W 7 9 - - 0.0 - - - - - - -
23/10:30am 22.9 W 3 4 - - 0.0 - - - - - - -
23/10:00am 22.1 SSE 2 5 - - 0.0 - - - - - - -
23/09:30am 21.0 SE 4 7 - - 0.0 - - - - - - -
23/09:00am 20.2 ESE 2 4 - - 1.0 - - - - - - -
23/08:30am 18.3 N 1 3 - - 1.0 - - - - - - -
23/08:00am 17.2 NNE 2 3 - - 1.0 - - - - - - -
23/07:30am 16.6 NE 2 2 - - 1.0 - - - - - - -
23/07:00am 15.0 NE 4 5 - - 1.0 - - - - - - -
23/06:30am 13.4 NE 4 6 - - 1.0 - - - - - - -
23/06:00am 12.9 NE 3 5 - - 1.0 - - - - - - -
23/05:30am 13.2 NE 4 6 - - 1.0 - - - - - - -
23/05:00am 12.9 E 3 4 - - 1.0 - - - - - - -
23/04:30am 13.0 CALM 0 1 - - 1.0 - - - - - - -
23/04:00am 13.4 E 4 5 - - 1.0 - - - - - - -
23/03:30am 14.0 E 4 5 - - 1.0 - - - - - - -
23/03:00am 13.9 E 4 5 - - 1.0 - - - - - - -
23/02:30am 13.5 ESE 4 5 - - 1.0 - - - - - - -
23/02:00am 13.7 E 5 6 - - 1.0 - - - - - - -
23/01:30am 13.8 ESE 5 6 - - 1.0 - - - - - - -
23/01:00am 14.3 E 5 6 - - 1.0 - - - - - - -
23/12:30am 14.5 E 3 5 - - 1.0 - - - - - - -
23/12:00am 14.8 ESE 4 6 - - 1.0 - - - - - - -
 
Date/Time
CDT
Temp

°C
Wind Pressure Rain
since 9am
mm
Weather Cloud Vis
km
Sea
Height
m
Swell
Dir
 
Speed
knots
Gust
knots
hPa Trend Height
m
Period
s
Dir
22/11:30pm 15.2 ESE 5 6 - - 1.0 - - - - - - -
22/11:00pm 15.2 ESE 4 6 - - 1.0 - - - - - - -
22/10:30pm 15.8 ESE 4 6 - - 1.0 - - - - - - -
22/10:00pm 16.2 SE 3 5 - - 1.0 - - - - - - -
22/09:30pm 16.9 SE 5 7 - - 1.0 - - - - - - -
22/09:00pm 17.5 SE 7 10 - - 1.0 - - - - - - -
22/08:30pm 18.6 S 4 7 - - 1.0 - - - - - - -
22/08:00pm 19.3 S 2 4 - - 1.0 - - - - - - -
22/07:30pm 20.1 WNW 2 4 - - 1.0 - - - - - - -
22/07:00pm 20.4 W 6 8 - - 1.0 - - - - - - -
22/06:30pm 21.9 WNW 5 7 - - 1.0 - - - - - - -
22/06:00pm 22.4 WSW 8 14 - - 1.0 - - - - - - -
22/05:30pm 23.6 SW 6 10 - - 1.0 - - - - - - -
22/05:00pm 23.0 SW 8 13 - - 1.0 - - - - - - -
22/04:30pm 23.0 SW 8 13 - - 1.0 - - - - - - -
22/04:00pm 23.0 W 11 15 - - 1.0 - - - - - - -
22/03:30pm 24.2 WNW 7 11 - - 1.0 - - - - - - -
22/03:00pm 21.5 N 3 5 - - 1.0 Recent precip. - - - - - -
22/02:30pm 21.5 WNW 6 8 - - 0.8 - - - - - - -
22/02:00pm 23.2 NW 3 6 - - 0.8 - - - - - - -
22/01:30pm 22.7 WNW 8 12 - - 0.8 - - - - - - -
22/01:00pm 21.9 NW 9 15 - - 0.8 - - - - - - -
22/12:30pm 24.1 NNW 8 15 - - 0.4 - - - - - - -
22/12:00pm 23.4 N 6 10 - - 0.2 - - - - - - -
22/11:30am 22.8 NNE 13 20 - - 0.2 - - - - - - -
22/11:00am 21.4 NE 7 11 - - 0.2 - - - - - - -
22/10:30am 21.2 N 7 12 - - 0.2 - - - - - - -
22/10:00am 21.4 NNE 10 14 - - 0.2 - - - - - - -
22/09:30am 20.6 NNE 9 14 - - 0.2 - - - - - - -
22/09:00am 18.7 NNE 10 13 - - 2.4 Rain - - - - - -
22/08:30am 20.1 NNE 10 13 - - 1.2 - - - - - - -
22/08:00am 20.2 NW 5 8 - - 1.2 - - - - - - -
22/07:30am 20.1 N 9 17 - - 1.0 - - - - - - -
22/07:00am 24.7 N 12 21 - - 0.2 - - - - - - -
22/06:30am 24.9 N 15 24 - - 0.2 - - - - - - -
22/06:00am 25.6 N 17 26 - - 0.2 - - - - - - -
22/05:31am 26.2 N 15 25 - - 0.2 - - - - - - -
22/05:30am 26.1 N 14 24 - - 0.2 - - - - - - -
22/05:00am 26.6 NNE 14 22 - - 0.2 - - - - - - -
22/04:30am 26.6 NNE 13 19 - - 0.2 - - - - - - -
22/04:00am 26.2 NNE 13 22 - - 0.2 - - - - - - -
22/03:30am 26.1 NNE 15 22 - - 0.2 - - - - - - -
22/03:00am 25.1 NE 10 15 - - 0.2 - - - - - - -
22/02:30am 24.3 NE 10 14 - - 0.2 - - - - - - -
22/02:00am 22.6 ENE 8 11 - - 0.2 - - - - - - -
22/01:30am 22.6 ENE 7 11 - - 0.2 - - - - - - -
22/01:00am 22.4 ENE 9 13 - - 0.2 - - - - - - -
22/12:30am 22.3 ENE 8 10 - - 0.2 - - - - - - -
22/12:00am 22.1 ENE 8 11 - - 0.2 - - - - - - -
 
Date/Time
CDT
Temp

°C
Wind Pressure Rain
since 9am
mm
Weather Cloud Vis
km
Sea
Height
m
Swell
Dir
 
Speed
knots
Gust
knots
hPa Trend Height
m
Period
s
Dir
21/11:30pm 22.5 ENE 8 12 - - 0.2 - - - - - - -
21/11:00pm 22.6 ENE 7 10 - - 0.2 - - - - - - -
21/10:30pm 22.5 E 8 11 - - 0.2 - - - - - - -
21/10:00pm 22.3 E 6 8 - - 0.2 - - - - - - -
21/09:30pm 22.0 E 4 5 - - 0.2 - - - - - - -
21/09:00pm 21.9 E 4 5 - - 0.2 - - - - - - -
21/08:30pm 22.1 E 2 3 - - 0.2 - - - - - - -
21/08:00pm 23.3 CALM 0 1 - - 0.2 - - - - - - -
21/07:30pm 23.8 W 2 3 - - 0.2 - - - - - - -
21/07:00pm 24.5 W 4 6 - - 0.2 - - - - - - -
21/06:30pm 24.8 W 5 7 - - 0.2 - - - - - - -
21/06:00pm 25.0 NNW 4 7 - - 0.2 - - - - - - -
21/05:30pm 24.5 W 5 8 - - 0.2 - - - - - - -
21/05:00pm 24.5 W 6 10 - - 0.2 - - - - - - -
21/04:30pm 24.2 W 6 8 - - 0.2 - - - - - - -
21/04:00pm 24.0 W 5 8 - - 0.2 - - - - - - -
21/03:30pm 24.0 W 5 7 - - 0.2 - - - - - - -
21/03:00pm 23.5 W 4 7 - - 0.2 - - - - - - -
21/02:30pm 22.4 WNW 5 9 - - 0.2 - - - - - - -
21/02:00pm 21.9 W 5 8 - - 0.2 - - - - - - -
21/01:30pm 22.5 WNW 5 7 - - 0.2 - - - - - - -
21/01:00pm 20.6 NW 7 10 - - 0.2 - - - - - - -
21/12:30pm 20.2 NNW 7 12 - - 0.2 - - - - - - -
21/12:00pm 19.4 WNW 6 10 - - 0.2 - - - - - - -
21/11:30am 19.1 NW 7 10 - - 0.2 - - - - - - -
21/11:00am 18.8 NW 6 10 - - 0.2 - - - - - - -
21/10:30am 18.4 WNW 7 13 - - 0.2 - - - - - - -
21/10:00am 18.3 WNW 6 10 - - 0.0 - - - - - - -
21/09:30am 17.4 WNW 5 9 - - 0.0 - - - - - - -
21/09:00am 17.4 WNW 6 10 - - 4.4 - - - - - - -

Other Formats:

Comma delimited format used in spreadsheet applications
http://www.bom.gov.au/fwo/IDS60701/IDS60701.94808.axf

JavaScript Object Notation format (JSON) in row-major order
http://www.bom.gov.au/fwo/IDS60701/IDS60701.94808.json